Time;durP1;ratioP1;P1;durP2;ratioP2;P2;SDS_P1;SDS_P2;PMS_P1;PMS_P2;Temp;Humidity;BMP_temperature;BMP_pressure;BME280_temperature;BME280_humidity;BME280_pressure;Samples;Min_cycle;Max_cycle;Signal;HPM_P1;HPM_P2
2021/03/16 00:01:58;;;;;;;5.90;3.30;;;;;;;5.05;64.06;96784.84;5071837;28;20214;-67
2021/03/16 00:04:24;;;;;;;6.97;3.10;;;;;;;5.11;63.85;96784.31;5068985;28;20221;-68
2021/03/16 00:06:49;;;;;;;6.47;3.13;;;;;;;5.05;63.65;96788.25;5068744;28;20685;-66
2021/03/16 00:09:15;;;;;;;6.20;2.73;;;;;;;5.17;63.65;96794.22;5071240;28;20238;-66
2021/03/16 00:11:41;;;;;;;5.17;3.03;;;;;;;5.05;63.37;96790.84;5072228;28;20194;-67
2021/03/16 00:14:06;;;;;;;5.30;2.70;;;;;;;5.33;63.15;96798.94;5060419;28;20223;-67
2021/03/16 00:16:32;;;;;;;5.87;3.20;;;;;;;5.35;63.43;96804.84;5071516;28;20189;-68
2021/03/16 00:18:58;;;;;;;5.33;2.87;;;;;;;5.60;62.81;96792.34;5070970;28;20182;-67
2021/03/16 00:21:23;;;;;;;11.97;3.63;;;;;;;5.55;62.05;96797.09;5099269;28;20178;-69
2021/03/16 00:23:49;;;;;;;5.33;3.00;;;;;;;5.54;61.79;96804.09;5068944;28;20720;-68
2021/03/16 00:26:15;;;;;;;7.80;3.77;;;;;;;5.59;61.61;96798.50;5071058;28;20186;-69
2021/03/16 00:28:41;;;;;;;4.50;3.77;;;;;;;5.72;61.06;96802.66;5072002;28;20213;-68
2021/03/16 00:31:06;;;;;;;8.27;3.00;;;;;;;5.32;62.00;96806.88;5063014;28;20281;-68
2021/03/16 00:33:32;;;;;;;7.83;3.03;;;;;;;5.44;61.83;96813.63;5071647;28;20243;-67
2021/03/16 00:35:58;;;;;;;4.33;2.63;;;;;;;5.46;61.25;96813.50;5072249;28;20553;-67
2021/03/16 00:38:23;;;;;;;9.23;3.10;;;;;;;5.34;61.92;96818.78;5072082;28;20210;-67
2021/03/16 00:40:50;;;;;;;4.63;2.60;;;;;;;5.36;61.07;96814.28;5071282;28;20190;-68
2021/03/16 00:43:17;;;;;;;6.87;3.40;;;;;;;5.17;61.77;96816.75;5067702;28;20211;-67
2021/03/16 00:45:43;;;;;;;7.37;3.60;;;;;;;5.28;61.25;96821.91;5059853;28;20487;-67
2021/03/16 00:48:18;;;;;;;3.60;2.80;;;;;;;5.22;61.25;96812.00;5069109;28;20807;-67
2021/03/16 00:50:44;;;;;;;5.60;3.10;;;;;;;5.17;61.65;96808.97;5070852;28;20455;-68
2021/03/16 00:53:10;;;;;;;5.67;3.10;;;;;;;4.75;62.00;96815.81;5070395;28;20416;-67
2021/03/16 00:55:36;;;;;;;6.97;3.23;;;;;;;4.68;61.00;96813.84;5062549;28;20955;-68
2021/03/16 00:58:02;;;;;;;10.43;2.80;;;;;;;4.62;61.67;96825.56;5067920;28;20920;-66
2021/03/16 01:00:28;;;;;;;5.70;2.43;;;;;;;5.07;60.03;96817.53;5064286;28;20946;-67
2021/03/16 01:02:54;;;;;;;9.50;2.93;;;;;;;4.97;60.54;96821.84;5071048;28;20536;-68
2021/03/16 01:05:19;;;;;;;5.63;2.50;;;;;;;4.87;60.97;96828.75;5070138;28;20225;-68
2021/03/16 01:07:45;;;;;;;11.33;3.17;;;;;;;5.08;60.59;96819.16;5071331;28;20204;-67
2021/03/16 01:10:14;;;;;;;6.67;3.27;;;;;;;4.76;61.96;96827.84;5069971;28;20270;-67
2021/03/16 01:12:40;;;;;;;6.13;3.07;;;;;;;4.96;61.16;96833.16;5071087;28;20179;-67
2021/03/16 01:15:06;;;;;;;9.77;4.27;;;;;;;5.30;61.00;96835.56;5070597;28;20452;-68
2021/03/16 01:17:32;;;;;;;7.40;3.00;;;;;;;5.01;61.68;96838.81;5070579;28;20903;-68
2021/03/16 01:19:58;;;;;;;10.50;3.73;;;;;;;5.18;61.83;96841.78;5071788;28;20515;-67
2021/03/16 01:22:23;;;;;;;6.97;3.23;;;;;;;4.89;62.47;96845.03;5064753;28;20202;-68
2021/03/16 01:24:49;;;;;;;12.53;3.50;;;;;;;4.97;62.66;96842.63;5055852;28;20662;-67
2021/03/16 01:27:15;;;;;;;8.33;3.10;;;;;;;4.96;62.23;96846.16;5070716;28;20201;-69
2021/03/16 01:29:40;;;;;;;9.23;3.80;;;;;;;5.55;61.43;96843.91;5071216;28;20194;-67
2021/03/16 01:32:07;;;;;;;7.80;3.00;;;;;;;5.22;61.40;96846.63;5071666;28;20729;-68
2021/03/16 01:34:32;;;;;;;5.93;3.53;;;;;;;5.41;62.21;96857.25;5070619;28;20204;-67
2021/03/16 01:36:58;;;;;;;6.37;3.40;;;;;;;4.92;62.62;96843.00;5063955;28;20428;-67
2021/03/16 01:39:23;;;;;;;3.83;2.93;;;;;;;5.13;63.12;96849.16;5074218;28;20265;-67
2021/03/16 01:41:49;;;;;;;6.50;3.27;;;;;;;5.06;63.75;96854.03;5074893;28;20192;-65
2021/03/16 01:44:15;;;;;;;8.03;3.53;;;;;;;5.18;63.24;96847.81;5065610;28;20245;-68
2021/03/16 01:46:41;;;;;;;7.37;3.33;;;;;;;5.41;63.13;96852.88;5076190;28;20608;-68
2021/03/16 01:49:07;;;;;;;5.23;3.60;;;;;;;5.65;62.08;96855.19;5070381;28;20183;-68
2021/03/16 01:51:32;;;;;;;8.47;3.47;;;;;;;5.41;63.02;96845.06;5080350;28;20454;-68
2021/03/16 01:53:58;;;;;;;5.17;3.77;;;;;;;5.39;63.35;96846.97;5077381;28;20205;-67
2021/03/16 01:56:25;;;;;;;7.53;3.77;;;;;;;5.18;63.43;96847.81;5077549;28;20204;-66
2021/03/16 01:58:54;;;;;;;13.50;4.50;;;;;;;4.63;65.56;96853.16;5071989;28;20696;-66
2021/03/16 02:01:20;;;;;;;9.17;3.93;;;;;;;4.99;64.75;96848.50;5062388;28;20892;-68
2021/03/16 02:03:45;;;;;;;7.23;4.03;;;;;;;5.27;63.47;96846.25;5075914;28;20470;-69
2021/03/16 02:06:17;;;;;;;6.07;3.50;;;;;;;4.68;65.25;96855.38;5081885;28;20271;-66
2021/03/16 02:09:17;;;;;;;8.90;4.10;;;;;;;4.71;65.52;96855.13;5072274;28;20186;-67
2021/03/16 02:11:48;;;;;;;5.10;3.13;;;;;;;4.98;64.86;96857.25;5051129;28;20445;-67
2021/03/16 02:14:33;;;;;;;9.90;3.40;;;;;;;4.79;64.66;96850.13;5044883;28;20983;-67
2021/03/16 02:17:16;;;;;;;7.53;3.83;;;;;;;5.21;64.26;96851.94;5042337;28;20424;-67
2021/03/16 02:19:57;;;;;;;6.83;3.93;;;;;;;4.88;64.55;96845.97;5051607;28;20421;-67
2021/03/16 02:22:26;;;;;;;3.87;3.40;;;;;;;4.84;64.91;96848.00;5035317;28;20496;-66
2021/03/16 02:25:00;;;;;;;5.73;3.47;;;;;;;4.80;64.89;96861.34;5051541;28;20445;-66
2021/03/16 02:27:28;;;;;;;5.50;3.33;;;;;;;4.89;65.12;96848.44;5044225;28;20463;-64
2021/03/16 02:30:02;;;;;;;8.43;3.60;;;;;;;4.97;64.14;96850.41;5044073;28;20954;-68
2021/03/16 02:32:28;;;;;;;4.77;3.93;;;;;;;4.67;66.08;96864.91;5036175;28;20782;-66
2021/03/16 02:34:57;;;;;;;7.07;3.70;;;;;;;4.64;65.37;96865.19;5051755;28;20461;-68
2021/03/16 02:37:25;;;;;;;9.27;3.40;;;;;;;4.88;65.43;96858.97;5051083;28;20417;-68
2021/03/16 02:39:52;;;;;;;5.70;3.43;;;;;;;4.62;66.05;96861.88;5040209;28;20436;-68
2021/03/16 02:42:18;;;;;;;13.23;4.17;;;;;;;4.82;65.29;96864.63;5064687;28;20908;-68
2021/03/16 02:44:45;;;;;;;13.63;3.80;;;;;;;4.88;65.10;96862.38;5058773;28;20457;-67
2021/03/16 02:47:11;;;;;;;6.50;3.60;;;;;;;4.74;65.47;96865.25;5058496;28;20524;-67
2021/03/16 02:49:39;;;;;;;9.70;4.10;;;;;;;4.75;65.82;96875.53;5068798;28;20889;-68
2021/03/16 02:52:05;;;;;;;9.17;3.80;;;;;;;4.99;64.64;96871.88;5064526;28;20421;-66
2021/03/16 02:54:32;;;;;;;13.80;4.53;;;;;;;4.78;65.14;96871.03;5072177;28;20457;-69
2021/03/16 02:56:59;;;;;;;8.37;4.10;;;;;;;4.65;65.54;96876.38;5071930;28;20421;-69
2021/03/16 02:59:25;;;;;;;10.10;3.60;;;;;;;4.69;66.45;96883.81;5065775;28;20428;-67
2021/03/16 03:01:51;;;;;;;17.23;5.13;;;;;;;4.71;65.23;96886.28;5071591;28;20417;-67
2021/03/16 03:04:20;;;;;;;6.83;3.27;;;;;;;4.57;65.46;96879.59;5071119;28;20470;-68
2021/03/16 03:06:46;;;;;;;18.93;6.60;;;;;;;4.61;65.81;96881.00;5072969;28;20948;-66
2021/03/16 03:09:13;;;;;;;8.77;3.83;;;;;;;4.74;65.31;96875.63;5072347;28;20449;-68
2021/03/16 03:11:38;;;;;;;6.63;4.03;;;;;;;5.01;65.22;96888.19;5072098;28;20428;-68
2021/03/16 03:14:05;;;;;;;14.03;4.70;;;;;;;4.73;66.14;96894.75;5070904;28;20518;-68
2021/03/16 03:16:31;;;;;;;8.00;3.20;;;;;;;4.93;64.87;96887.97;5070995;28;20538;-68
2021/03/16 03:18:57;;;;;;;5.80;3.20;;;;;;;4.66;66.38;96886.66;5063256;28;20432;-68
2021/03/16 03:21:45;;;;;;;8.00;3.20;;;;;;;4.95;64.86;96883.47;5071552;28;20273;-68
2021/03/16 03:24:13;;;;;;;12.73;3.73;;;;;;;4.80;65.42;96872.56;5056330;28;20289;-67
2021/03/16 03:26:52;;;;;;;11.83;3.77;;;;;;;4.37;66.52;96889.78;5071367;28;20435;-68
2021/03/16 03:29:19;;;;;;;4.57;3.20;;;;;;;4.43;66.56;96901.47;5071068;28;20421;-67
2021/03/16 03:31:47;;;;;;;15.20;3.70;;;;;;;4.65;65.71;96897.16;5072490;28;20428;-66
2021/03/16 03:34:14;;;;;;;9.40;4.10;;;;;;;4.41;66.09;96898.97;5069781;28;20467;-67
2021/03/16 03:36:41;;;;;;;8.03;3.70;;;;;;;4.39;66.71;96911.25;5072167;28;20417;-67
2021/03/16 03:39:08;;;;;;;11.93;4.53;;;;;;;4.36;66.44;96908.06;5070446;28;20440;-67
2021/03/16 03:41:35;;;;;;;26.20;7.57;;;;;;;4.22;67.09;96911.75;5071083;28;20425;-66
2021/03/16 03:44:04;;;;;;;9.27;3.43;;;;;;;4.42;66.42;96918.78;5069610;28;20885;-66
2021/03/16 03:46:32;;;;;;;19.70;7.07;;;;;;;4.44;66.23;96914.31;5070339;28;20983;-67
2021/03/16 03:49:02;;;;;;;12.73;4.63;;;;;;;4.36;66.78;96914.09;5071724;28;20478;-67
2021/03/16 03:51:29;;;;;;;9.47;3.07;;;;;;;4.25;67.09;96909.72;5072236;28;20833;-66
2021/03/16 03:53:56;;;;;;;6.83;2.93;;;;;;;4.29;66.33;96905.97;5069196;28;20555;-67
2021/03/16 03:56:22;;;;;;;5.43;3.00;;;;;;;4.36;66.69;96916.69;5061365;28;20432;-68
2021/03/16 03:58:49;;;;;;;8.87;3.33;;;;;;;4.48;66.03;96922.66;5064420;28;20448;-68
2021/03/16 04:01:15;;;;;;;8.53;3.00;;;;;;;4.51;65.62;96925.03;5070421;28;20478;-66
2021/03/16 04:03:40;;;;;;;8.17;3.07;;;;;;;4.54;65.42;96926.53;5068406;28;20971;-66
2021/03/16 04:06:06;;;;;;;5.47;3.20;;;;;;;4.29;66.42;96929.31;5054462;28;20189;-66
2021/03/16 04:08:33;;;;;;;10.07;3.10;;;;;;;4.53;65.47;96930.13;5065727;28;20195;-68
2021/03/16 04:11:00;;;;;;;9.30;3.03;;;;;;;4.56;65.70;96935.88;5052717;28;20438;-69
2021/03/16 04:13:26;;;;;;;6.67;2.90;;;;;;;4.64;65.47;96937.03;5053043;28;20422;-67
2021/03/16 04:15:52;;;;;;;3.90;2.57;;;;;;;4.44;65.73;96942.03;5050631;28;20517;-67
2021/03/16 04:18:18;;;;;;;11.57;2.90;;;;;;;4.44;66.14;96942.03;5033109;28;20916;-67
2021/03/16 04:20:44;;;;;;;5.13;2.70;;;;;;;4.34;67.29;96941.94;5051440;28;20535;-67
2021/03/16 04:23:10;;;;;;;10.73;3.30;;;;;;;4.21;67.71;96939.47;5049981;28;20987;-67
2021/03/16 04:25:35;;;;;;;9.60;2.80;;;;;;;4.66;66.21;96945.53;5059419;28;20210;-66
2021/03/16 04:28:01;;;;;;;8.60;2.83;;;;;;;4.50;66.06;96951.13;5051599;28;20254;-67
2021/03/16 04:30:26;;;;;;;10.13;3.60;;;;;;;4.19;66.86;96943.09;5049587;28;20185;-67
2021/03/16 04:32:52;;;;;;;14.47;2.60;;;;;;;4.27;65.34;96945.97;5051054;28;20183;-66
2021/03/16 04:35:18;;;;;;;7.73;2.60;;;;;;;4.53;64.55;96943.09;5062325;28;20285;-65
2021/03/16 04:37:44;;;;;;;7.50;2.30;;;;;;;4.28;64.26;96945.81;5051071;28;20547;-65
2021/03/16 04:40:10;;;;;;;7.60;2.47;;;;;;;4.38;63.75;96950.28;5054802;28;20597;-66
2021/03/16 04:42:36;;;;;;;9.97;2.90;;;;;;;4.24;64.03;96952.19;5062677;28;20223;-67
2021/03/16 04:45:03;;;;;;;4.83;2.10;;;;;;;4.58;63.27;96959.97;5051564;28;20512;-67
2021/03/16 04:47:28;;;;;;;10.63;2.33;;;;;;;4.44;64.26;96963.63;5059601;28;20210;-67
2021/03/16 04:49:54;;;;;;;5.70;2.37;;;;;;;4.48;63.27;96971.16;5057848;28;20523;-67
2021/03/16 04:52:20;;;;;;;10.53;2.50;;;;;;;4.69;63.42;96960.88;5050617;28;20666;-67
2021/03/16 04:54:46;;;;;;;9.43;2.20;;;;;;;4.53;63.77;96966.47;5050682;28;20199;-68
2021/03/16 04:57:11;;;;;;;7.33;2.50;;;;;;;4.65;64.02;96975.03;5050039;28;20183;-68
2021/03/16 04:59:37;;;;;;;9.73;2.00;;;;;;;4.67;63.51;96967.94;5056072;28;20186;-67
2021/03/16 05:02:03;;;;;;;11.87;2.77;;;;;;;4.51;63.86;96963.16;5052324;28;21942;-67
2021/03/16 05:04:29;;;;;;;5.33;2.50;;;;;;;4.11;64.97;96972.22;5059294;28;20215;-67
2021/03/16 05:06:54;;;;;;;13.17;2.33;;;;;;;4.65;63.59;96968.09;5052284;28;20179;-67
2021/03/16 05:09:20;;;;;;;4.83;1.80;;;;;;;4.41;63.81;96973.41;5052088;28;20190;-67
2021/03/16 05:11:45;;;;;;;5.83;2.10;;;;;;;4.63;63.14;96976.91;5051681;28;20183;-68
2021/03/16 05:14:11;;;;;;;9.90;2.70;;;;;;;4.46;63.30;96979.91;5050256;28;20199;-68
2021/03/16 05:16:37;;;;;;;7.60;2.30;;;;;;;4.67;63.12;96973.97;5062927;28;20653;-65
2021/03/16 05:19:03;;;;;;;9.80;2.50;;;;;;;4.70;62.36;96981.50;5061633;28;20678;-67
2021/03/16 05:21:29;;;;;;;7.73;2.30;;;;;;;4.59;63.03;96986.72;5043062;28;20187;-68
2021/03/16 05:23:55;;;;;;;5.10;2.10;;;;;;;4.67;62.74;96986.13;5053261;28;20461;-67
2021/03/16 05:26:22;;;;;;;8.37;2.57;;;;;;;4.74;62.87;96985.53;5060053;28;20859;-66
2021/03/16 05:28:48;;;;;;;5.90;2.30;;;;;;;4.65;63.31;96988.00;5056888;28;20665;-67
2021/03/16 05:31:13;;;;;;;11.10;2.57;;;;;;;4.80;63.13;96993.75;5054114;28;20435;-66
2021/03/16 05:33:39;;;;;;;8.80;2.77;;;;;;;4.45;63.68;96995.59;5053981;28;20893;-67
2021/03/16 05:36:05;;;;;;;5.20;2.00;;;;;;;4.36;64.12;97004.06;5057257;28;20225;-67
2021/03/16 05:38:31;;;;;;;4.23;2.13;;;;;;;4.22;64.62;97002.53;5054209;28;20187;-67
2021/03/16 05:40:56;;;;;;;5.37;2.30;;;;;;;4.31;64.14;97004.44;5062350;28;20583;-65
2021/03/16 05:43:22;;;;;;;10.23;3.53;;;;;;;4.71;63.39;97014.31;5059159;28;20253;-68
2021/03/16 05:45:48;;;;;;;3.17;1.90;;;;;;;4.32;63.64;97016.47;5065622;28;20218;-67
2021/03/16 05:48:14;;;;;;;7.83;2.37;;;;;;;4.60;63.50;97022.13;5054575;28;20255;-67
2021/03/16 05:50:40;;;;;;;6.53;1.70;;;;;;;4.51;63.50;97023.66;5053607;28;20509;-68
2021/03/16 05:53:06;;;;;;;6.70;2.50;;;;;;;4.74;63.07;97037.47;5037150;28;20448;-69
2021/03/16 05:55:32;;;;;;;17.00;2.90;;;;;;;4.51;63.36;97030.63;5059940;28;20218;-66
2021/03/16 05:57:57;;;;;;;9.83;2.30;;;;;;;4.41;63.53;97041.69;5059106;28;20274;-67
2021/03/16 06:00:24;;;;;;;7.67;2.47;;;;;;;4.60;63.01;97050.69;5052409;28;20183;-67
2021/03/16 06:02:49;;;;;;;13.00;2.30;;;;;;;4.75;63.20;97044.31;5054417;28;20923;-67
2021/03/16 06:05:16;;;;;;;9.60;2.63;;;;;;;4.90;62.34;97049.25;5034354;28;20449;-67
2021/03/16 06:07:49;;;;;;;9.03;2.90;;;;;;;4.63;63.09;97042.66;5057384;28;20187;-66
2021/03/16 06:10:18;;;;;;;5.40;2.20;;;;;;;4.69;62.93;97051.75;5046250;28;20433;-68
2021/03/16 06:12:44;;;;;;;6.80;3.10;;;;;;;4.77;62.77;97049.38;5062960;28;20424;-67
2021/03/16 06:15:11;;;;;;;5.70;2.13;;;;;;;4.49;63.29;97059.28;5057476;28;20924;-68
2021/03/16 06:17:48;;;;;;;10.50;2.17;;;;;;;4.74;62.69;97052.19;5072935;28;20201;-66
2021/03/16 06:20:26;;;;;;;8.10;2.77;;;;;;;4.55;62.73;97052.78;5063505;28;20954;-68
2021/03/16 06:23:05;;;;;;;5.40;2.50;;;;;;;5.00;61.93;97052.78;5066150;28;20452;-66
2021/03/16 06:25:39;;;;;;;8.30;2.80;;;;;;;4.45;64.15;97061.28;5061015;28;20445;-66
2021/03/16 06:28:07;;;;;;;7.23;3.30;;;;;;;4.67;63.23;97057.03;5076100;28;20434;-67
2021/03/16 06:30:33;;;;;;;8.90;2.20;;;;;;;4.71;63.55;97063.66;5087468;28;20452;-67
2021/03/16 06:33:00;;;;;;;12.83;4.07;;;;;;;4.54;63.59;97058.94;5086941;28;20425;-69
2021/03/16 06:35:26;;;;;;;9.70;2.60;;;;;;;4.70;62.94;97069.78;5081768;28;20452;-67
2021/03/16 06:38:06;;;;;;;11.30;3.27;;;;;;;4.71;63.61;97071.44;5074868;28;20535;-66
2021/03/16 06:40:32;;;;;;;9.67;3.30;;;;;;;4.88;62.91;97077.09;5066283;28;20467;-68
2021/03/16 06:43:09;;;;;;;9.63;3.33;;;;;;;4.91;63.27;97077.69;5073966;28;20464;-66
2021/03/16 06:45:36;;;;;;;8.63;3.10;;;;;;;4.57;64.33;97077.72;5067291;28;20445;-67
2021/03/16 06:48:21;;;;;;;8.77;2.97;;;;;;;4.82;64.36;97072.38;5072525;28;20425;-66
2021/03/16 06:50:48;;;;;;;11.80;3.47;;;;;;;4.38;64.84;97087.81;5072559;28;20459;-67
2021/03/16 06:53:19;;;;;;;7.20;2.93;;;;;;;4.62;65.17;97090.34;5075742;28;20431;-66
2021/03/16 06:55:55;;;;;;;13.63;3.20;;;;;;;4.39;65.13;97089.47;5066265;28;20763;-68
2021/03/16 06:58:30;;;;;;;12.23;3.00;;;;;;;4.54;65.77;97087.47;5069606;28;20428;-67
2021/03/16 07:01:06;;;;;;;8.50;3.50;;;;;;;4.50;65.91;97102.47;5075731;28;20496;-67
2021/03/16 07:03:32;;;;;;;8.43;2.83;;;;;;;4.70;64.99;97100.13;5066173;28;20453;-68
2021/03/16 07:06:08;;;;;;;12.33;3.90;;;;;;;4.66;64.86;97098.69;5061962;28;20435;-67
2021/03/16 07:08:34;;;;;;;6.67;2.70;;;;;;;4.68;66.24;97100.22;5061027;28;20603;-68
2021/03/16 07:11:05;;;;;;;5.67;3.00;;;;;;;4.53;66.80;97110.03;5069974;28;20429;-67
2021/03/16 07:13:34;;;;;;;9.60;3.33;;;;;;;4.70;66.37;97124.31;5061648;28;20413;-67
2021/03/16 07:16:04;;;;;;;9.90;3.40;;;;;;;4.60;65.92;97120.78;5063810;28;20526;-67
2021/03/16 07:18:35;;;;;;;10.03;2.80;;;;;;;4.86;65.98;97123.13;5069608;28;20429;-67
2021/03/16 07:21:23;;;;;;;12.07;2.70;;;;;;;4.93;66.07;97126.91;5069413;28;20441;-67
2021/03/16 07:23:52;;;;;;;14.17;3.20;;;;;;;4.27;67.56;97132.75;5065510;28;20576;-67
2021/03/16 07:26:18;;;;;;;9.90;2.90;;;;;;;4.52;67.13;97133.50;5057643;28;20429;-68
2021/03/16 07:28:47;;;;;;;10.20;3.50;;;;;;;4.41;68.05;97142.91;5072784;28;20535;-68
2021/03/16 07:31:13;;;;;;;10.17;2.90;;;;;;;4.34;67.75;97138.31;5074146;28;20970;-67
2021/03/16 07:33:39;;;;;;;6.23;2.70;;;;;;;4.50;67.60;97143.19;5071654;28;20417;-67
2021/03/16 07:36:05;;;;;;;8.10;3.10;;;;;;;4.60;67.53;97141.53;5068649;28;20416;-68
2021/03/16 07:38:32;;;;;;;5.20;2.43;;;;;;;4.48;67.37;97139.88;5066663;28;21125;-68
2021/03/16 07:41:00;;;;;;;8.30;3.10;;;;;;;4.55;67.27;97146.22;5070894;28;20519;-66
2021/03/16 07:43:40;;;;;;;9.27;3.20;;;;;;;4.64;66.01;97152.50;5071404;28;20803;-67
2021/03/16 07:46:14;;;;;;;7.50;2.50;;;;;;;5.01;65.33;97152.28;5070944;28;21137;-68
2021/03/16 07:48:51;;;;;;;7.57;2.63;;;;;;;4.70;65.98;97157.25;5071877;28;20412;-68
2021/03/16 07:51:22;;;;;;;5.43;2.53;;;;;;;4.51;66.22;97163.00;5073296;28;20457;-67
2021/03/16 07:53:57;;;;;;;5.20;2.70;;;;;;;4.84;65.73;97161.38;5063761;28;20453;-67
2021/03/16 07:56:26;;;;;;;8.53;3.07;;;;;;;4.89;65.32;97167.06;5067211;28;20427;-69
2021/03/16 07:58:52;;;;;;;8.83;3.17;;;;;;;5.15;64.38;97177.22;5072901;28;20421;-67
2021/03/16 08:01:18;;;;;;;8.20;3.10;;;;;;;4.82;64.35;97169.31;5071846;28;20508;-66
2021/03/16 08:03:43;;;;;;;8.00;2.33;;;;;;;5.15;64.12;97174.63;5072189;28;20464;-67
2021/03/16 08:06:21;;;;;;;5.70;2.70;;;;;;;5.22;64.09;97173.19;5070919;28;20433;-68
2021/03/16 08:08:47;;;;;;;5.77;2.83;;;;;;;5.26;63.18;97177.22;5072307;28;20212;-66
2021/03/16 08:11:12;;;;;;;7.90;2.80;;;;;;;5.22;64.25;97173.19;5070883;28;20928;-67
2021/03/16 08:13:39;;;;;;;7.70;3.07;;;;;;;5.31;63.18;97175.06;5069587;28;20184;-66
2021/03/16 08:16:12;;;;;;;9.63;3.20;;;;;;;4.99;63.18;97180.16;5071210;28;20182;-66
2021/03/16 08:18:38;;;;;;;13.57;3.83;;;;;;;5.34;63.26;97184.41;5069268;28;20523;-67
2021/03/16 08:21:11;;;;;;;16.03;3.40;;;;;;;5.06;63.50;97187.34;5069679;28;20553;-67
2021/03/16 08:23:37;;;;;;;11.10;3.60;;;;;;;5.20;63.57;97188.06;5069838;28;20460;-67
2021/03/16 08:26:05;;;;;;;9.57;3.00;;;;;;;5.49;63.09;97182.38;5070472;28;20516;-65
2021/03/16 08:28:31;;;;;;;10.03;3.43;;;;;;;5.35;63.34;97186.06;5063504;28;20512;-66
2021/03/16 08:30:57;;;;;;;8.83;2.77;;;;;;;5.35;62.89;97186.06;5056858;28;20811;-66
2021/03/16 08:33:23;;;;;;;9.30;3.10;;;;;;;5.51;62.37;97191.69;5066783;28;20429;-68
2021/03/16 08:35:50;;;;;;;4.87;3.30;;;;;;;5.35;62.53;97191.25;5063326;28;20197;-68
2021/03/16 08:38:30;;;;;;;6.20;3.30;;;;;;;5.47;62.63;97194.66;5068655;28;20179;-67
2021/03/16 08:41:07;;;;;;;6.93;3.20;;;;;;;5.35;62.62;97188.66;5067225;28;20418;-68
2021/03/16 08:43:33;;;;;;;11.03;3.20;;;;;;;5.54;62.20;97188.84;5062451;28;21104;-66
2021/03/16 08:45:59;;;;;;;10.20;4.13;;;;;;;5.79;61.55;97193.91;5068715;28;20495;-67
2021/03/16 08:48:28;;;;;;;10.60;4.50;;;;;;;5.69;62.36;97194.59;5070486;28;20220;-67
2021/03/16 08:50:54;;;;;;;12.47;3.57;;;;;;;5.47;63.06;97199.84;5072591;28;20182;-67
2021/03/16 08:53:20;;;;;;;6.80;4.10;;;;;;;5.29;63.26;97200.38;5076536;28;20419;-66
2021/03/16 08:55:51;;;;;;;8.37;4.30;;;;;;;5.17;63.61;97209.91;5049168;28;20437;-68
2021/03/16 08:58:17;;;;;;;11.67;3.53;;;;;;;5.31;62.73;97208.84;5071205;28;20214;-67
2021/03/16 09:00:43;;;;;;;7.50;3.93;;;;;;;5.27;63.13;97210.03;5072909;28;20425;-66
2021/03/16 09:03:09;;;;;;;9.00;4.00;;;;;;;5.51;62.88;97198.69;5068001;28;20550;-66
2021/03/16 09:05:35;;;;;;;14.10;4.37;;;;;;;5.58;61.95;97207.63;5078817;28;20444;-68
2021/03/16 09:08:00;;;;;;;11.53;3.77;;;;;;;5.70;62.24;97211.06;5072057;28;20452;-68
2021/03/16 09:10:27;;;;;;;7.57;4.90;;;;;;;5.72;62.31;97208.31;5051798;28;20186;-68
2021/03/16 09:12:53;;;;;;;11.33;4.10;;;;;;;5.67;62.08;97214.69;5073587;28;20621;-67
2021/03/16 09:15:21;;;;;;;28.23;8.20;;;;;;;5.32;63.37;97223.50;5057107;28;20544;-67
2021/03/16 09:17:49;;;;;;;36.40;8.43;;;;;;;5.43;63.34;97229.63;5071829;28;20424;-68
2021/03/16 09:20:29;;;;;;;21.73;7.23;;;;;;;5.43;63.66;97234.81;5062471;28;20926;-67
2021/03/16 09:22:59;;;;;;;14.90;5.20;;;;;;;5.44;64.23;97226.09;5076618;28;20982;-68
2021/03/16 09:25:30;;;;;;;42.33;13.03;;;;;;;5.07;65.07;97221.97;5069938;28;20476;-68
2021/03/16 09:29:14;;;;;;;9.80;4.00;;;;;;;5.18;65.46;97221.97;5102599;27;20553;-68
2021/03/16 09:31:40;;;;;;;16.00;6.13;;;;;;;5.48;64.78;97230.09;5100542;28;20447;-66
2021/03/16 09:34:06;;;;;;;15.87;6.70;;;;;;;5.65;64.96;97234.81;5136793;27;20213;-68
2021/03/16 09:36:31;;;;;;;43.00;13.00;;;;;;;5.63;64.27;97241.06;5087755;28;20193;-68
2021/03/16 09:38:57;;;;;;;26.20;7.73;;;;;;;5.43;65.20;97251.25;5080458;28;20476;-66
2021/03/16 09:41:23;;;;;;;25.10;8.27;;;;;;;5.15;67.03;97257.75;5076293;28;20235;-67
2021/03/16 09:43:50;;;;;;;17.67;6.27;;;;;;;4.98;68.24;97265.06;5088678;28;20482;-67
2021/03/16 09:46:15;;;;;;;16.13;6.33;;;;;;;4.79;69.43;97254.41;5088021;28;20430;-67
2021/03/16 09:48:49;;;;;;;617.27;115.30;;;;;;;4.95;70.29;97257.50;5080558;28;20473;-67
2021/03/16 09:51:17;;;;;;;51.97;13.53;;;;;;;4.85;70.66;97261.72;5081344;28;20197;-67
2021/03/16 09:53:55;;;;;;;16.97;6.63;;;;;;;5.11;70.93;97253.72;5069881;28;20432;-68
2021/03/16 09:56:28;;;;;;;13.70;5.93;;;;;;;5.29;70.11;97254.09;5086410;28;20500;-68
2021/03/16 09:58:58;;;;;;;13.87;6.13;;;;;;;5.14;70.33;97256.09;5082430;28;20420;-67
2021/03/16 10:01:24;;;;;;;12.43;5.87;;;;;;;5.41;70.57;97257.53;5085200;28;20419;-67
2021/03/16 10:04:00;;;;;;;15.20;6.77;;;;;;;5.18;70.27;97252.31;5088152;28;20941;-66
2021/03/16 10:06:38;;;;;;;22.77;8.27;;;;;;;5.29;69.74;97249.75;5088331;28;20476;-67
2021/03/16 10:09:18;;;;;;;18.97;7.93;;;;;;;5.49;69.64;97247.38;5086651;28;20554;-68
2021/03/16 10:11:44;;;;;;;25.60;8.10;;;;;;;5.45;68.21;97243.34;5088100;28;20482;-68
2021/03/16 10:14:11;;;;;;;17.63;6.67;;;;;;;5.57;69.19;97244.16;5086149;28;20455;-67
2021/03/16 10:16:36;;;;;;;23.00;7.97;;;;;;;5.81;68.29;97252.66;5088235;28;20523;-67
2021/03/16 10:19:03;;;;;;;44.90;10.00;;;;;;;5.44;68.78;97250.31;5083811;28;20459;-67
2021/03/16 10:21:34;;;;;;;14.93;5.40;;;;;;;5.56;68.60;97256.31;5081623;28;20262;-67
2021/03/16 10:24:01;;;;;;;12.67;4.97;;;;;;;5.51;67.96;97255.88;5084559;28;20449;-68
2021/03/16 10:26:27;;;;;;;23.00;7.90;;;;;;;5.18;67.84;97258.34;5088140;28;20517;-67
2021/03/16 10:28:53;;;;;;;43.03;11.20;;;;;;;5.03;68.15;97256.91;5078317;28;20455;-68
2021/03/16 10:31:20;;;;;;;32.60;8.97;;;;;;;5.00;68.55;97252.78;5088505;28;20436;-65
2021/03/16 10:33:49;;;;;;;29.20;10.00;;;;;;;5.11;68.85;97251.94;5081411;28;20193;-69
2021/03/16 10:36:14;;;;;;;47.17;12.53;;;;;;;5.35;67.89;97243.25;5087875;28;20431;-67
2021/03/16 10:38:40;;;;;;;36.33;10.83;;;;;;;5.38;67.45;97243.81;5097818;28;20428;-67
2021/03/16 10:41:06;;;;;;;26.63;7.40;;;;;;;5.79;66.31;97248.53;5063062;28;20255;-66
2021/03/16 10:43:32;;;;;;;15.63;5.90;;;;;;;6.13;65.24;97238.84;5069945;28;20622;-67
2021/03/16 10:45:58;;;;;;;9.63;5.13;;;;;;;6.39;65.05;97240.31;5071121;28;20187;-66
2021/03/16 10:48:24;;;;;;;13.47;5.80;;;;;;;6.91;64.53;97240.38;5077184;28;20190;-66
2021/03/16 10:50:50;;;;;;;16.87;5.50;;;;;;;7.14;62.62;97246.28;5077763;28;20454;-67
2021/03/16 10:53:16;;;;;;;16.17;5.33;;;;;;;6.97;62.24;97236.44;5080803;28;20179;-67
2021/03/16 10:55:42;;;;;;;12.70;5.20;;;;;;;7.25;61.54;97234.94;5079979;28;20461;-67
2021/03/16 10:58:08;;;;;;;14.20;5.67;;;;;;;6.88;61.95;97244.09;5109447;28;20479;-68
2021/03/16 11:00:34;;;;;;;16.10;6.17;;;;;;;6.88;61.63;97241.47;5062255;28;20429;-66
2021/03/16 11:02:59;;;;;;;18.60;4.03;;;;;;;6.51;59.92;97236.72;5074192;28;20445;-66
2021/03/16 11:05:25;;;;;;;13.80;4.73;;;;;;;5.98;61.16;97240.91;5067813;28;20449;-67
2021/03/16 11:07:51;;;;;;;8.53;4.20;;;;;;;6.19;60.06;97254.94;5063382;28;20195;-66
2021/03/16 11:10:17;;;;;;;9.40;4.10;;;;;;;6.44;60.88;97253.78;5059544;28;20198;-67
2021/03/16 11:12:43;;;;;;;11.80;4.50;;;;;;;6.73;62.05;97250.56;5055565;28;20426;-68
2021/03/16 11:15:09;;;;;;;10.20;4.20;;;;;;;6.35;62.39;97251.91;5049770;28;20207;-68
2021/03/16 11:17:35;;;;;;;10.70;4.60;;;;;;;6.71;61.92;97255.91;5045303;28;20468;-68
2021/03/16 11:20:01;;;;;;;10.10;4.80;;;;;;;6.43;62.84;97252.13;5052052;28;20461;-66
2021/03/16 11:22:26;;;;;;;8.03;3.63;;;;;;;6.68;61.58;97257.94;5053963;28;20532;-68
2021/03/16 11:24:52;;;;;;;8.77;4.40;;;;;;;6.90;60.46;97260.41;5061374;28;20199;-66
2021/03/16 11:27:18;;;;;;;11.27;3.80;;;;;;;6.55;59.44;97258.94;5053317;28;20749;-65
2021/03/16 11:29:43;;;;;;;16.77;4.30;;;;;;;6.47;61.52;97266.53;5054258;28;20179;-67
2021/03/16 11:32:09;;;;;;;8.47;3.70;;;;;;;6.96;60.68;97260.84;5052891;28;20179;-68
2021/03/16 11:34:35;;;;;;;14.33;3.73;;;;;;;6.47;60.71;97260.53;5052901;28;20302;-67
2021/03/16 11:37:01;;;;;;;9.03;3.80;;;;;;;6.44;61.10;97258.97;5053477;28;20509;-68
2021/03/16 11:39:27;;;;;;;14.30;4.37;;;;;;;6.33;61.88;97257.25;5054213;28;20870;-67
2021/03/16 11:41:52;;;;;;;10.47;3.60;;;;;;;6.24;61.06;97260.59;5062722;28;20175;-65
2021/03/16 11:44:18;;;;;;;8.17;4.70;;;;;;;5.92;61.85;97254.38;5053898;28;20195;-66